createdAt,value
2018-11-27T00:03:43.430Z,15.93
2018-11-27T00:08:53.619Z,17.37
2018-11-27T00:14:03.488Z,15.93
2018-11-27T00:19:14.931Z,17.07
2018-11-27T00:24:15.780Z,15.63
2018-11-27T00:29:16.443Z,15.37
2018-11-27T00:34:17.953Z,15.27
2018-11-27T00:39:18.520Z,14.50
2018-11-27T00:44:19.968Z,15.37
2018-11-27T00:49:20.609Z,16.47
2018-11-27T00:54:21.331Z,16.87
2018-11-27T00:59:21.947Z,18.13
2018-11-27T01:04:22.518Z,15.53
2018-11-27T01:09:23.204Z,15.30
2018-11-27T01:14:23.789Z,16.87
2018-11-27T01:19:24.636Z,15.83
2018-11-27T01:24:25.253Z,18.13
2018-11-27T01:29:25.866Z,15.40
2018-11-27T01:34:26.715Z,17.17
2018-11-27T01:39:27.375Z,16.63
2018-11-27T01:44:28.063Z,16.93
2018-11-27T01:49:28.954Z,16.80
2018-11-27T01:54:29.729Z,16.27
2018-11-27T01:59:30.345Z,16.10
2018-11-27T02:04:31.069Z,16.87
2018-11-27T02:09:31.668Z,14.80
2018-11-27T02:14:32.256Z,17.27
2018-11-27T02:19:32.890Z,16.57
2018-11-27T02:24:33.634Z,16.13
2018-11-27T02:29:34.406Z,16.70
2018-11-27T02:34:35.107Z,16.77
2018-11-27T02:39:35.723Z,16.63
2018-11-27T02:44:36.356Z,16.70
2018-11-27T02:49:36.821Z,16.90
2018-11-27T02:54:37.289Z,18.90
2018-11-27T02:59:38.101Z,16.37
2018-11-27T03:04:38.859Z,16.73
2018-11-27T03:09:39.371Z,17.73
2018-11-27T03:14:40.179Z,15.67
2018-11-27T03:19:40.749Z,15.30
2018-11-27T03:24:41.357Z,15.93
2018-11-27T03:29:42.087Z,16.67
2018-11-27T03:34:42.808Z,17.13
2018-11-27T03:39:43.500Z,16.77
2018-11-27T03:44:44.260Z,16.07
2018-11-27T03:49:45.024Z,14.73
2018-11-27T03:54:45.817Z,16.00
2018-11-27T03:59:46.474Z,16.37
2018-11-27T04:04:47.306Z,15.60
2018-11-27T04:09:47.919Z,17.93
2018-11-27T04:14:48.716Z,17.23
2018-11-27T04:19:49.440Z,15.67
2018-11-27T04:24:50.139Z,18.33
2018-11-27T04:29:50.961Z,16.57
2018-11-27T04:34:51.775Z,14.87
2018-11-27T04:39:52.061Z,14.87
2018-11-27T04:44:52.693Z,13.73
2018-11-27T04:49:53.392Z,11.03
2018-11-27T04:54:54.123Z,10.43
2018-11-27T04:59:54.828Z,12.17
2018-11-27T05:04:55.483Z,11.70
2018-11-27T05:09:56.144Z,10.53
2018-11-27T05:14:56.965Z,11.43
2018-11-27T05:19:57.569Z,10.47
2018-11-27T05:24:58.279Z,11.73
2018-11-27T05:29:58.860Z,11.77
2018-11-27T05:34:59.643Z,10.60
2018-11-27T05:40:00.210Z,10.57
2018-11-27T05:45:00.991Z,9.83
2018-11-27T05:50:01.456Z,10.27
2018-11-27T05:55:02.514Z,9.73
2018-11-27T06:00:03.224Z,9.57
2018-11-27T06:05:08.160Z,9.73
2018-11-27T06:10:11.481Z,9.73
2018-11-27T06:15:17.473Z,10.53
2018-11-27T06:20:20.487Z,9.27
2018-11-27T06:25:24.279Z,9.47
2018-11-27T06:30:26.167Z,9.33
2018-11-27T06:35:29.201Z,10.07
2018-11-27T06:40:30.942Z,10.77
2018-11-27T06:45:31.616Z,9.57
2018-11-27T06:50:32.896Z,9.23
2018-11-27T06:55:33.633Z,10.33
2018-11-27T07:00:34.309Z,8.80
2018-11-27T07:05:37.006Z,10.87
2018-11-27T07:10:38.745Z,10.90
2018-11-27T07:15:39.294Z,9.57
2018-11-27T07:20:39.921Z,9.93
2018-11-27T07:25:40.576Z,9.67
2018-11-27T07:30:42.942Z,9.53
2018-11-27T07:35:43.551Z,10.60
2018-11-27T07:40:44.267Z,9.53
2018-11-27T07:45:44.804Z,9.07
2018-11-27T07:50:45.507Z,10.73
2018-11-27T07:55:46.272Z,11.23
2018-11-27T08:00:46.944Z,10.47
2018-11-27T08:05:47.667Z,10.60
2018-11-27T08:10:49.144Z,10.20
2018-11-27T08:15:49.775Z,12.07
2018-11-27T08:20:50.564Z,12.57
2018-11-27T08:25:50.842Z,10.33
2018-11-27T08:30:51.597Z,9.67
2018-11-27T08:35:52.222Z,11.57
2018-11-27T08:40:53.028Z,11.70
2018-11-27T08:45:53.417Z,10.70
2018-11-27T08:50:54.130Z,11.87
2018-11-27T08:55:54.889Z,11.47
2018-11-27T09:00:55.464Z,11.03
2018-11-27T09:05:56.260Z,11.13
2018-11-27T09:10:57.297Z,11.37
2018-11-27T09:15:58.408Z,12.00
2018-11-27T09:20:58.989Z,11.47
2018-11-27T09:25:59.552Z,12.23
2018-11-27T09:31:00.306Z,13.17
2018-11-27T09:36:00.877Z,11.77
2018-11-27T09:41:01.645Z,12.50
2018-11-27T09:46:02.275Z,12.83
2018-11-27T09:51:02.825Z,13.33
2018-11-27T09:56:03.471Z,12.93
2018-11-27T10:01:04.303Z,11.67
2018-11-27T10:06:05.270Z,13.97
2018-11-27T10:11:06.460Z,15.67
2018-11-27T10:16:06.979Z,13.37
2018-11-27T10:21:07.571Z,14.17
2018-11-27T10:26:08.208Z,14.27
2018-11-27T10:31:08.741Z,12.23
2018-11-27T10:36:09.456Z,12.27
2018-11-27T10:41:10.272Z,11.43
2018-11-27T10:46:10.825Z,12.90
2018-11-27T10:51:11.618Z,12.87
2018-11-27T10:56:12.378Z,12.27
2018-11-27T11:01:18.213Z,12.47
2018-11-27T11:06:18.985Z,13.37
2018-11-27T11:11:19.767Z,12.27
2018-11-27T11:16:20.289Z,13.37
2018-11-27T11:21:21.014Z,13.20
2018-11-27T11:26:21.503Z,12.37
2018-11-27T11:31:26.539Z,12.33
2018-11-27T11:47:54.474Z,14.57
2018-11-27T11:52:57.629Z,13.40
2018-11-27T11:58:14.340Z,12.23
2018-11-27T12:03:14.904Z,12.50
2018-11-27T12:08:15.730Z,10.90
2018-11-27T12:13:37.658Z,12.87
2018-11-27T12:18:38.274Z,11.70
2018-11-27T12:23:38.792Z,12.17
2018-11-27T12:28:39.487Z,11.87
2018-11-27T12:33:39.822Z,12.40
2018-11-27T12:38:40.422Z,11.87
2018-11-27T12:43:41.120Z,12.27
2018-11-27T12:48:41.804Z,12.53
2018-11-27T12:53:45.614Z,11.93
2018-11-27T12:58:46.634Z,12.47
2018-11-27T13:03:47.522Z,10.37
2018-11-27T13:08:49.017Z,13.10
2018-11-27T13:13:50.414Z,12.20
2018-11-27T13:18:51.226Z,11.70
2018-11-27T13:23:52.381Z,12.47
2018-11-27T13:28:53.019Z,12.97
2018-11-27T13:34:06.780Z,12.77
2018-11-27T13:39:18.581Z,12.57
2018-11-27T13:44:19.125Z,14.43
2018-11-27T13:49:19.654Z,12.27
2018-11-27T13:54:20.325Z,12.77
2018-11-27T13:59:20.998Z,12.30
2018-11-27T14:04:21.730Z,13.97
2018-11-27T14:09:22.521Z,12.97
2018-11-27T14:14:23.244Z,12.63
2018-11-27T14:19:24.072Z,12.13
2018-11-27T14:24:24.817Z,13.23
2018-11-27T14:29:25.973Z,11.43
2018-11-27T14:34:26.693Z,13.70
2018-11-27T14:39:27.248Z,11.97
2018-11-27T14:44:29.781Z,13.10
2018-11-27T14:49:30.510Z,13.03
2018-11-27T14:54:31.175Z,11.63
2018-11-27T14:59:31.851Z,13.03
2018-11-27T15:04:33.111Z,13.80
2018-11-27T15:09:36.416Z,18.53
2018-11-27T15:14:37.844Z,18.33
2018-11-27T15:19:39.265Z,17.40
2018-11-27T15:24:40.924Z,14.13
2018-11-27T15:29:41.760Z,11.40
2018-11-27T15:34:42.554Z,11.57
2018-11-27T15:39:43.627Z,14.63
2018-11-27T15:44:44.400Z,13.10
2018-11-27T15:49:45.338Z,13.07
2018-11-27T15:54:46.093Z,11.90
2018-11-27T16:05:18.012Z,12.50
2018-11-27T16:10:19.324Z,11.70
2018-11-27T16:15:20.842Z,12.40
2018-11-27T16:20:22.356Z,15.43
2018-11-27T16:25:25.751Z,13.33
2018-11-27T16:30:27.847Z,13.23
2018-11-27T16:35:28.641Z,12.83
2018-11-27T16:40:33.058Z,13.17
2018-11-27T16:45:34.006Z,13.13
2018-11-27T16:50:34.827Z,11.47
2018-11-27T16:56:32.844Z,14.50
2018-11-27T17:01:34.903Z,14.07
2018-11-27T17:06:35.755Z,13.43
2018-11-27T17:11:38.421Z,12.03
2018-11-27T17:22:11.011Z,12.90
2018-11-27T17:27:15.245Z,12.87
2018-11-27T17:38:02.945Z,14.37
2018-11-27T17:43:04.284Z,15.43
2018-11-27T17:48:05.830Z,16.03
2018-11-27T17:53:07.336Z,15.33
2018-11-27T17:58:08.192Z,12.43
2018-11-27T18:03:10.747Z,12.37
2018-11-27T18:08:11.667Z,14.37
2018-11-27T18:13:12.525Z,13.60
2018-11-27T18:18:13.171Z,13.20
2018-11-27T18:23:14.568Z,15.07
2018-11-27T18:28:17.872Z,14.87
2018-11-27T18:33:18.593Z,12.07
2018-11-27T18:38:19.412Z,13.40
2018-11-27T18:43:20.255Z,12.20
2018-11-27T18:48:21.119Z,13.30
2018-11-27T18:53:21.983Z,11.70
2018-11-27T18:58:22.436Z,13.40
2018-11-27T19:03:23.001Z,12.77
2018-11-27T19:08:23.924Z,12.57
2018-11-27T19:13:25.012Z,12.67
2018-11-27T19:18:27.012Z,13.00
2018-11-27T19:23:28.366Z,14.30
2018-11-27T19:28:30.112Z,12.73
2018-11-27T19:33:33.659Z,13.10
2018-11-27T19:38:34.404Z,11.83
2018-11-27T19:43:35.226Z,13.37
2018-11-27T19:48:36.860Z,15.00
2018-11-27T19:53:37.598Z,12.70
2018-11-27T19:58:38.518Z,12.70
2018-11-27T20:03:39.534Z,13.50
2018-11-27T20:08:40.275Z,12.10
2018-11-27T20:13:41.381Z,14.13
2018-11-27T20:18:42.245Z,14.67
2018-11-27T20:23:43.420Z,12.87
2018-11-27T20:28:44.210Z,13.37
2018-11-27T20:33:45.281Z,14.30
2018-11-27T20:38:46.422Z,13.07
2018-11-27T20:43:47.117Z,12.33
2018-11-27T20:48:48.333Z,13.37
2018-11-27T20:53:49.916Z,11.33
2018-11-27T20:58:51.573Z,13.50
2018-11-27T21:03:52.387Z,13.77
2018-11-27T21:08:53.513Z,14.53
2018-11-27T21:13:54.228Z,14.30
2018-11-27T21:18:55.189Z,14.23
2018-11-27T21:23:56.122Z,12.33
2018-11-27T21:28:56.927Z,12.40
2018-11-27T21:33:57.535Z,12.40
2018-11-27T21:39:03.129Z,14.53
2018-11-27T21:44:04.555Z,11.80
2018-11-27T21:49:06.015Z,15.53
2018-11-27T21:54:07.395Z,13.57
2018-11-27T21:59:08.540Z,14.23
2018-11-27T22:04:09.185Z,12.97
2018-11-27T22:09:09.986Z,13.57
2018-11-27T22:14:10.973Z,13.57
2018-11-27T22:19:12.033Z,13.23
2018-11-27T22:24:12.732Z,13.17
2018-11-27T22:29:14.126Z,14.43
2018-11-27T22:34:15.039Z,15.97
2018-11-27T22:39:15.921Z,16.23
2018-11-27T22:44:16.628Z,15.03
2018-11-27T22:49:18.537Z,14.70
2018-11-27T22:54:19.203Z,16.47
2018-11-27T22:59:19.803Z,15.60
2018-11-27T23:04:20.494Z,16.80
2018-11-27T23:09:21.452Z,14.73
2018-11-27T23:14:22.102Z,15.00
2018-11-27T23:19:23.097Z,14.83
2018-11-27T23:24:23.987Z,15.33
2018-11-27T23:29:24.554Z,15.87
2018-11-27T23:34:25.226Z,16.27
2018-11-27T23:39:25.941Z,16.13
2018-11-27T23:44:26.718Z,15.13
2018-11-27T23:49:27.321Z,15.53
2018-11-27T23:54:28.217Z,14.57
2018-11-27T23:59:29.019Z,15.07
